createdAt,value
2023-02-02T00:01:20.215Z,7.80
2023-02-02T00:03:50.675Z,7.70
2023-02-02T00:06:20.320Z,7.80
2023-02-02T00:08:48.962Z,7.80
2023-02-02T00:11:17.819Z,7.80
2023-02-02T00:13:46.051Z,7.80
2023-02-02T00:16:39.509Z,7.80
2023-02-02T00:19:09.528Z,7.80
2023-02-02T00:21:39.360Z,7.80
2023-02-02T00:24:08.738Z,7.80
2023-02-02T00:26:37.380Z,7.80
2023-02-02T00:29:06.001Z,7.80
2023-02-02T00:31:38.231Z,7.90
2023-02-02T00:34:06.515Z,7.80
2023-02-02T00:36:36.608Z,7.80
2023-02-02T00:39:06.434Z,7.80
2023-02-02T00:41:34.470Z,7.80
2023-02-02T00:44:20.062Z,7.80
2023-02-02T00:46:48.261Z,7.80
2023-02-02T00:52:09.016Z,7.80
2023-02-02T00:54:38.385Z,7.80
2023-02-02T00:57:06.401Z,7.50
2023-02-02T00:59:34.416Z,8.00
2023-02-02T01:02:02.957Z,7.90
2023-02-02T01:04:31.236Z,7.90
2023-02-02T01:06:59.359Z,7.90
2023-02-02T01:12:21.588Z,7.90
2023-02-02T01:14:49.665Z,7.90
2023-02-02T01:17:18.754Z,8.00
2023-02-02T01:23:28.638Z,8.00
2023-02-02T01:25:57.142Z,8.10
2023-02-02T01:28:27.164Z,8.00
2023-02-02T01:36:34.638Z,8.00
2023-02-02T01:39:02.715Z,8.00
2023-02-02T01:41:30.741Z,8.00
2023-02-02T01:44:01.443Z,8.10
2023-02-02T01:46:31.105Z,8.00
2023-02-02T01:49:04.577Z,8.10
2023-02-02T01:51:41.569Z,8.10
2023-02-02T01:54:11.990Z,7.80
2023-02-02T01:56:45.025Z,8.10
2023-02-02T01:59:16.630Z,8.10
2023-02-02T02:01:45.746Z,8.10
2023-02-02T02:04:15.324Z,8.10
2023-02-02T02:06:44.133Z,8.10
2023-02-02T02:09:12.535Z,8.10
2023-02-02T02:11:40.568Z,8.10
2023-02-02T02:14:29.412Z,8.10
2023-02-02T02:17:18.914Z,8.10
2023-02-02T02:20:43.528Z,8.10
2023-02-02T02:24:04.729Z,8.10
2023-02-02T02:26:52.482Z,8.10
2023-02-02T02:30:03.876Z,8.10
2023-02-02T02:32:42.120Z,8.10
2023-02-02T02:35:18.601Z,8.10
2023-02-02T02:37:50.771Z,8.10
2023-02-02T02:40:26.860Z,7.80
2023-02-02T02:42:59.141Z,8.00
2023-02-02T02:45:29.181Z,8.10
2023-02-02T02:47:59.378Z,8.10
2023-02-02T03:05:33.560Z,8.00
2023-02-02T03:08:10.997Z,8.00
2023-02-02T03:10:41.621Z,8.00
2023-02-02T03:13:12.039Z,8.00
2023-02-02T03:15:42.888Z,8.00
2023-02-02T03:18:11.229Z,8.10
2023-02-02T03:20:44.284Z,8.00
2023-02-02T03:23:12.208Z,8.00
2023-02-02T03:25:40.760Z,8.00
2023-02-02T03:28:08.903Z,8.00
2023-02-02T03:30:38.044Z,8.00
2023-02-02T03:33:07.409Z,8.00
2023-02-02T03:35:35.914Z,8.00
2023-02-02T03:38:05.378Z,8.00
2023-02-02T03:40:33.388Z,8.00
2023-02-02T03:43:01.423Z,8.00
2023-02-02T03:45:29.822Z,8.00
2023-02-02T03:47:57.859Z,8.00
2023-02-02T03:50:27.352Z,8.00
2023-02-02T03:52:55.761Z,8.00
2023-02-02T03:55:25.535Z,8.00
2023-02-02T03:57:53.873Z,8.00
2023-02-02T04:00:22.627Z,8.00
2023-02-02T04:02:50.596Z,8.10
2023-02-02T04:05:18.713Z,8.10
2023-02-02T04:07:50.837Z,8.10
2023-02-02T04:10:20.218Z,8.10
2023-02-02T04:13:00.542Z,8.10
2023-02-02T04:15:28.626Z,8.10
2023-02-02T04:17:56.884Z,8.10
2023-02-02T04:20:24.885Z,8.10
2023-02-02T04:22:53.057Z,8.10
2023-02-02T04:25:21.140Z,8.10
2023-02-02T04:27:50.679Z,8.00
2023-02-02T04:30:19.947Z,8.10
2023-02-02T04:32:48.352Z,8.10
2023-02-02T04:35:16.666Z,8.10
2023-02-02T04:37:44.845Z,8.10
2023-02-02T04:40:14.560Z,8.10
2023-02-02T04:42:45.996Z,8.10
2023-02-02T04:45:15.591Z,8.40
2023-02-02T04:47:44.747Z,8.10
2023-02-02T04:50:13.270Z,8.10
2023-02-02T04:55:10.441Z,9.30
2023-02-02T04:57:38.491Z,8.20
2023-02-02T05:00:08.075Z,8.20
2023-02-02T05:02:38.640Z,8.10
2023-02-02T05:05:08.873Z,8.20
2023-02-02T05:07:36.872Z,8.10
2023-02-02T05:10:06.733Z,8.20
2023-02-02T05:12:34.871Z,8.20
2023-02-02T05:15:03.491Z,8.20
2023-02-02T05:20:01.765Z,8.10
2023-02-02T05:22:29.816Z,8.20
2023-02-02T05:24:57.859Z,8.20
2023-02-02T05:27:25.900Z,8.20
2023-02-02T05:32:22.432Z,8.10
2023-02-02T05:34:50.443Z,8.10
2023-02-02T05:37:19.943Z,8.10
2023-02-02T05:39:49.890Z,8.10
2023-02-02T05:42:19.173Z,8.10
2023-02-02T05:44:47.170Z,8.10
2023-02-02T05:47:15.259Z,8.30
2023-02-02T05:49:43.391Z,8.10
2023-02-02T05:52:16.056Z,8.20
2023-02-02T05:54:48.404Z,8.20
2023-02-02T05:57:16.427Z,8.10
2023-02-02T05:59:45.088Z,8.10
2023-02-02T06:02:13.062Z,8.10
2023-02-02T06:04:41.088Z,8.10
2023-02-02T06:07:09.095Z,8.10
2023-02-02T06:09:37.116Z,8.10
2023-02-02T06:12:07.264Z,8.10
2023-02-02T06:14:35.506Z,9.90
2023-02-02T06:17:03.532Z,7.60
2023-02-02T06:19:31.501Z,8.00
2023-02-02T06:21:59.773Z,8.10
2023-02-02T06:24:28.313Z,8.20
2023-02-02T06:26:56.994Z,8.10
2023-02-02T06:29:26.459Z,8.10
2023-02-02T06:31:54.621Z,8.00
2023-02-02T06:34:22.812Z,8.10
2023-02-02T06:36:50.896Z,8.00
2023-02-02T06:39:19.111Z,8.10
2023-02-02T06:41:48.311Z,8.20
2023-02-02T06:44:16.547Z,8.00
2023-02-02T06:46:46.636Z,8.00
2023-02-02T06:49:14.830Z,8.00
2023-02-02T06:51:44.472Z,8.00
2023-02-02T06:54:12.746Z,8.00
2023-02-02T06:56:40.973Z,8.10
2023-02-02T06:59:09.586Z,8.10
2023-02-02T07:01:38.222Z,8.10
2023-02-02T07:04:07.750Z,8.10
2023-02-02T07:06:35.824Z,8.10
2023-02-02T07:09:06.292Z,7.80
2023-02-02T07:11:37.564Z,7.90
2023-02-02T07:14:08.751Z,8.00
2023-02-02T07:16:36.788Z,8.00
2023-02-02T07:19:07.955Z,7.80
2023-02-02T07:21:37.648Z,8.00
2023-02-02T07:24:07.310Z,8.00
2023-02-02T07:26:36.280Z,8.00
2023-02-02T07:29:04.969Z,8.00
2023-02-02T07:31:36.035Z,8.50
2023-02-02T07:34:04.900Z,8.00
2023-02-02T07:36:32.911Z,7.70
2023-02-02T07:39:04.673Z,8.10
2023-02-02T07:41:33.223Z,8.10
2023-02-02T07:44:01.870Z,8.10
2023-02-02T07:46:30.156Z,8.10
2023-02-02T07:48:58.722Z,8.10
2023-02-02T07:51:27.371Z,8.10
2023-02-02T07:53:58.494Z,8.10
2023-02-02T07:56:28.818Z,8.10
2023-02-02T07:58:57.742Z,8.40
2023-02-02T08:01:27.226Z,8.10
2023-02-02T08:03:56.800Z,8.10
2023-02-02T08:06:26.588Z,8.20
2023-02-02T08:08:54.815Z,8.20
2023-02-02T08:11:24.457Z,8.20
2023-02-02T08:13:55.749Z,8.20
2023-02-02T08:16:24.177Z,9.20
2023-02-02T08:18:52.656Z,8.30
2023-02-02T08:21:21.447Z,8.30
2023-02-02T08:23:50.243Z,8.30
2023-02-02T08:26:24.186Z,8.30
2023-02-02T08:28:56.721Z,8.30
2023-02-02T08:31:26.887Z,8.30
2023-02-02T08:33:55.893Z,8.40
2023-02-02T08:36:25.038Z,8.40
2023-02-02T08:38:53.950Z,8.50
2023-02-02T08:41:24.056Z,8.50
2023-02-02T08:43:52.592Z,8.50
2023-02-02T08:46:22.831Z,8.60
2023-02-02T08:48:51.214Z,8.50
2023-02-02T08:51:20.592Z,8.50
2023-02-02T08:53:49.198Z,8.60
2023-02-02T08:56:19.477Z,8.60
2023-02-02T08:58:49.099Z,8.60
2023-02-02T09:01:19.111Z,8.60
2023-02-02T09:03:49.010Z,8.60
2023-02-02T09:06:19.375Z,8.60
2023-02-02T09:08:48.119Z,8.60
2023-02-02T09:11:28.780Z,8.20
2023-02-02T09:14:15.171Z,8.70
2023-02-02T09:16:43.628Z,8.60
2023-02-02T09:19:13.829Z,8.60
2023-02-02T09:21:41.848Z,8.70
2023-02-02T09:24:12.139Z,8.70
2023-02-02T09:26:41.272Z,8.80
2023-02-02T09:29:12.672Z,8.80
2023-02-02T09:31:40.820Z,8.90
2023-02-02T09:34:11.193Z,8.90
2023-02-02T09:36:41.736Z,8.90
2023-02-02T09:39:12.708Z,8.90
2023-02-02T09:42:13.466Z,9.00
2023-02-02T09:45:01.671Z,8.90
2023-02-02T09:47:48.578Z,9.00
2023-02-02T09:50:22.208Z,9.00
2023-02-02T09:52:58.842Z,9.00
2023-02-02T09:55:34.953Z,9.10
2023-02-02T09:58:13.329Z,8.80
2023-02-02T10:00:47.111Z,9.00
2023-02-02T10:03:20.529Z,9.00
2023-02-02T10:05:55.559Z,9.00
2023-02-02T10:08:35.051Z,9.00
2023-02-02T10:11:13.621Z,9.10
2023-02-02T10:16:17.835Z,9.00
2023-02-02T10:18:51.273Z,9.00
2023-02-02T10:21:27.848Z,9.00
2023-02-02T10:23:59.264Z,9.00
2023-02-02T10:26:37.796Z,9.00
2023-02-02T10:29:16.163Z,9.00
2023-02-02T10:31:50.721Z,9.00
2023-02-02T10:34:24.044Z,9.00
2023-02-02T10:37:14.335Z,8.90
2023-02-02T10:39:58.667Z,9.00
2023-02-02T10:42:36.719Z,9.00
2023-02-02T10:45:11.265Z,9.00
2023-02-02T10:47:39.878Z,9.30
2023-02-02T10:50:19.518Z,9.00
2023-02-02T10:52:50.180Z,9.10
2023-02-02T10:55:28.455Z,9.10
2023-02-02T10:58:07.169Z,9.10
2023-02-02T11:00:40.676Z,9.20
2023-02-02T11:03:11.402Z,9.20
2023-02-02T11:05:57.617Z,9.20
2023-02-02T11:08:31.313Z,9.20
2023-02-02T11:11:11.785Z,9.30
2023-02-02T11:13:44.818Z,9.30
2023-02-02T11:16:43.090Z,9.30
2023-02-02T11:19:29.694Z,9.40
2023-02-02T11:21:59.471Z,9.50
2023-02-02T11:24:30.273Z,9.50
2023-02-02T11:27:02.824Z,9.60
2023-02-02T11:29:37.493Z,9.70
2023-02-02T11:32:27.680Z,9.70
2023-02-02T11:35:18.292Z,9.80
2023-02-02T11:37:58.959Z,9.80
2023-02-02T11:40:33.350Z,9.90
2023-02-02T11:43:05.401Z,9.90
2023-02-02T11:45:39.421Z,9.80
2023-02-02T11:48:15.267Z,9.80
2023-02-02T11:50:48.405Z,9.80
2023-02-02T11:53:28.725Z,9.90
2023-02-02T11:56:00.513Z,9.80
2023-02-02T11:58:31.407Z,9.80
2023-02-02T12:01:02.357Z,9.70
2023-02-02T12:03:33.467Z,9.70
2023-02-02T12:06:03.049Z,9.70
2023-02-02T12:08:31.694Z,9.70
2023-02-02T12:11:02.266Z,9.70
2023-02-02T12:13:57.348Z,9.80
2023-02-02T12:16:54.480Z,9.90
2023-02-02T12:19:47.631Z,10.00
2023-02-02T12:22:32.529Z,9.90
2023-02-02T12:25:09.710Z,9.90
2023-02-02T12:27:47.078Z,10.00
2023-02-02T12:30:34.104Z,10.00
2023-02-02T12:33:24.491Z,10.00
2023-02-02T12:36:21.929Z,10.10
2023-02-02T12:39:23.023Z,10.30
2023-02-02T12:42:28.177Z,10.30
2023-02-02T12:45:23.473Z,10.20
2023-02-02T12:48:22.916Z,10.20
2023-02-02T12:51:05.171Z,10.20
2023-02-02T12:54:32.997Z,10.10
2023-02-02T12:56:42.244Z,10.20
2023-02-02T12:59:17.687Z,10.20
2023-02-02T13:02:05.147Z,10.30
2023-02-02T13:04:57.866Z,10.30
2023-02-02T13:07:47.901Z,10.30
2023-02-02T13:10:22.915Z,10.40
2023-02-02T13:12:55.185Z,10.50
2023-02-02T13:15:28.586Z,10.80
2023-02-02T13:17:59.989Z,10.50
2023-02-02T13:20:38.095Z,10.50
2023-02-02T13:23:14.376Z,10.40
2023-02-02T13:25:49.019Z,10.40
2023-02-02T13:28:34.476Z,10.30
2023-02-02T13:31:06.521Z,10.20
2023-02-02T13:33:36.621Z,10.30
2023-02-02T13:36:11.252Z,10.40
2023-02-02T13:38:42.491Z,10.40
2023-02-02T13:41:13.597Z,10.30
2023-02-02T13:43:50.083Z,10.30
2023-02-02T13:46:28.493Z,10.30
2023-02-02T13:49:03.284Z,10.30
2023-02-02T13:51:51.594Z,10.30
2023-02-02T13:55:02.172Z,10.30
2023-02-02T13:58:00.744Z,10.20
2023-02-02T14:00:33.707Z,10.10
2023-02-02T14:03:05.972Z,10.10
2023-02-02T14:05:36.710Z,10.00
2023-02-02T14:08:07.265Z,10.00
2023-02-02T14:10:37.794Z,10.00
2023-02-02T14:13:35.856Z,10.00
2023-02-02T14:16:06.420Z,10.00
2023-02-02T14:18:55.421Z,10.10
2023-02-02T14:22:01.363Z,10.00
2023-02-02T14:24:51.737Z,10.00
2023-02-02T14:27:56.816Z,9.90
2023-02-02T14:30:34.254Z,9.90
2023-02-02T14:33:42.150Z,9.90
2023-02-02T14:36:17.002Z,9.90
2023-02-02T14:39:12.078Z,9.90
2023-02-02T14:42:28.578Z,10.00
2023-02-02T14:45:23.897Z,10.20
2023-02-02T14:47:55.605Z,9.90
2023-02-02T14:50:36.125Z,9.90
2023-02-02T14:53:08.216Z,9.90
2023-02-02T14:55:39.635Z,9.90
2023-02-02T14:58:08.652Z,9.90
2023-02-02T15:00:36.888Z,9.90
2023-02-02T15:03:50.827Z,9.90
2023-02-02T15:06:31.602Z,9.90
2023-02-02T15:09:37.615Z,9.80
2023-02-02T15:12:19.855Z,9.50
2023-02-02T15:14:51.840Z,9.70
2023-02-02T15:17:27.806Z,9.70
2023-02-02T15:20:06.516Z,10.00
2023-02-02T15:22:42.454Z,9.70
2023-02-02T15:25:19.506Z,9.80
2023-02-02T15:27:57.000Z,9.70
2023-02-02T15:30:27.573Z,9.60
2023-02-02T15:32:56.949Z,9.60
2023-02-02T15:35:31.724Z,9.30
2023-02-02T15:38:02.305Z,9.60
2023-02-02T15:40:32.399Z,9.60
2023-02-02T15:43:02.779Z,9.60
2023-02-02T15:45:34.743Z,9.60
2023-02-02T15:48:08.551Z,9.50
2023-02-02T15:50:39.668Z,9.50
2023-02-02T15:53:07.998Z,9.60
2023-02-02T15:55:37.226Z,9.60
2023-02-02T15:58:20.383Z,9.50
2023-02-02T16:00:57.271Z,9.50
2023-02-02T16:03:31.756Z,9.50
2023-02-02T16:06:01.177Z,9.50
2023-02-02T16:08:34.235Z,9.50
2023-02-02T16:11:06.483Z,9.50
2023-02-02T16:13:34.722Z,9.50
2023-02-02T16:16:06.064Z,9.50
2023-02-02T16:18:35.128Z,9.40
2023-02-02T16:21:12.481Z,9.40
2023-02-02T16:23:40.985Z,9.40
2023-02-02T16:26:09.476Z,9.80
2023-02-02T16:28:37.641Z,9.40
2023-02-02T16:31:07.267Z,9.40
2023-02-02T16:33:38.277Z,9.40
2023-02-02T16:36:25.133Z,9.20
2023-02-02T16:38:55.882Z,9.40
2023-02-02T16:41:32.313Z,9.40
2023-02-02T16:44:38.640Z,9.30
2023-02-02T16:47:08.093Z,9.30
2023-02-02T16:49:37.767Z,9.30
2023-02-02T16:52:14.079Z,9.40
2023-02-02T16:54:45.543Z,9.10
2023-02-02T16:57:22.502Z,9.20
2023-02-02T16:59:54.385Z,9.20
2023-02-02T17:02:32.157Z,9.20
2023-02-02T17:05:05.968Z,9.20
2023-02-02T17:07:39.221Z,9.10
2023-02-02T17:10:24.500Z,9.10
2023-02-02T17:12:52.875Z,9.10
2023-02-02T17:15:33.414Z,9.00
2023-02-02T17:18:03.304Z,9.00
2023-02-02T17:20:32.548Z,9.00
2023-02-02T17:23:06.953Z,9.00
2023-02-02T17:25:38.103Z,9.00
2023-02-02T17:28:11.677Z,8.90
2023-02-02T17:30:41.445Z,9.20
2023-02-02T17:33:14.674Z,8.90
2023-02-02T17:35:54.266Z,8.60
2023-02-02T17:38:27.798Z,8.90
2023-02-02T17:40:58.166Z,8.90
2023-02-02T17:43:27.809Z,8.80
2023-02-02T17:45:55.930Z,8.80
2023-02-02T17:48:24.058Z,8.80
2023-02-02T17:50:52.101Z,8.80
2023-02-02T17:53:22.306Z,9.30
2023-02-02T17:55:53.612Z,8.80
2023-02-02T17:58:22.123Z,8.80
2023-02-02T18:00:54.264Z,8.70
2023-02-02T18:03:25.847Z,8.70
2023-02-02T18:05:54.155Z,8.70
2023-02-02T18:08:22.423Z,8.70
2023-02-02T18:10:51.850Z,8.70
2023-02-02T18:13:21.565Z,8.60
2023-02-02T18:15:50.675Z,8.70
2023-02-02T18:18:19.083Z,8.60
2023-02-02T18:20:48.705Z,8.60
2023-02-02T18:23:17.615Z,8.60
2023-02-02T18:25:45.977Z,8.60
2023-02-02T18:28:17.992Z,8.60
2023-02-02T18:30:47.266Z,8.80
2023-02-02T18:33:17.928Z,8.60
2023-02-02T18:35:47.305Z,8.60
2023-02-02T18:38:15.725Z,8.60
2023-02-02T18:40:43.914Z,8.50
2023-02-02T18:43:12.084Z,8.40
2023-02-02T18:45:41.642Z,8.40
2023-02-02T18:48:09.677Z,8.30
2023-02-02T18:50:37.730Z,8.20
2023-02-02T18:53:07.186Z,8.10
2023-02-02T18:55:35.210Z,8.00
2023-02-02T18:58:03.500Z,8.00
2023-02-02T19:00:31.482Z,7.70
2023-02-02T19:03:00.936Z,7.90
2023-02-02T19:05:46.555Z,7.90
2023-02-02T19:08:14.507Z,8.00
2023-02-02T19:10:42.669Z,7.90
2023-02-02T19:13:17.792Z,7.80
2023-02-02T19:15:46.606Z,7.80
2023-02-02T19:18:18.544Z,7.80
2023-02-02T19:20:48.329Z,7.80
2023-02-02T19:23:18.045Z,7.80
2023-02-02T19:25:51.352Z,7.80
2023-02-02T19:28:23.124Z,7.80
2023-02-02T19:30:52.822Z,7.90
2023-02-02T19:33:22.690Z,7.80
2023-02-02T19:35:52.513Z,7.80
2023-02-02T19:38:21.287Z,7.80
2023-02-02T19:40:49.322Z,7.80
2023-02-02T19:43:27.421Z,7.80
2023-02-02T19:45:56.036Z,7.80
2023-02-02T19:48:27.288Z,7.90
2023-02-02T19:50:56.574Z,7.80
2023-02-02T19:53:28.263Z,7.90
2023-02-02T19:55:56.429Z,7.90
2023-02-02T19:58:26.262Z,7.90
2023-02-02T20:00:57.326Z,7.90
2023-02-02T20:03:29.629Z,7.90
2023-02-02T20:06:00.735Z,8.20
2023-02-02T20:08:36.813Z,7.90
2023-02-02T20:11:20.328Z,7.90
2023-02-02T20:13:49.351Z,8.00
2023-02-02T20:16:19.175Z,8.00
2023-02-02T20:18:53.961Z,8.00
2023-02-02T20:21:28.629Z,8.00
2023-02-02T20:23:56.663Z,8.00
2023-02-02T20:26:27.370Z,8.00
2023-02-02T20:28:57.834Z,7.60
2023-02-02T20:31:29.807Z,7.90
2023-02-02T20:33:59.183Z,8.00
2023-02-02T20:36:39.987Z,8.20
2023-02-02T20:39:27.281Z,8.00
2023-02-02T20:41:57.880Z,8.00
2023-02-02T20:44:27.126Z,8.10
2023-02-02T20:46:55.799Z,8.10
2023-02-02T20:49:26.903Z,8.10
2023-02-02T20:51:55.357Z,8.00
2023-02-02T20:54:23.997Z,8.10
2023-02-02T20:56:52.600Z,8.10
2023-02-02T20:59:21.200Z,8.10
2023-02-02T21:01:50.244Z,8.10
2023-02-02T21:04:18.801Z,8.10
2023-02-02T21:06:49.279Z,8.10
2023-02-02T21:09:18.396Z,8.00
2023-02-02T21:11:46.686Z,8.50
2023-02-02T21:14:14.915Z,8.10
2023-02-02T21:16:43.146Z,8.10
2023-02-02T21:19:11.371Z,8.10
2023-02-02T21:21:39.404Z,8.10
2023-02-02T21:24:09.231Z,8.10
2023-02-02T21:26:37.488Z,8.20
2023-02-02T21:29:05.789Z,8.20
2023-02-02T21:31:35.281Z,8.20
2023-02-02T21:34:03.635Z,8.20
2023-02-02T21:36:35.258Z,8.20
2023-02-02T21:39:16.402Z,8.20
2023-02-02T21:41:44.524Z,8.30
2023-02-02T21:44:17.268Z,8.30
2023-02-02T21:46:46.510Z,8.40
2023-02-02T21:49:22.149Z,8.20
2023-02-02T21:51:54.234Z,8.20
2023-02-02T21:54:26.692Z,8.20
2023-02-02T21:56:55.473Z,8.20
2023-02-02T21:59:24.968Z,8.50
2023-02-02T22:01:53.897Z,8.20
2023-02-02T22:04:24.369Z,8.20
2023-02-02T22:06:54.399Z,8.20
2023-02-02T22:09:26.133Z,8.50
2023-02-02T22:11:58.433Z,8.10
2023-02-02T22:14:37.674Z,8.10
2023-02-02T22:17:21.278Z,8.10
2023-02-02T22:19:50.953Z,8.10
2023-02-02T22:22:22.524Z,8.20
2023-02-02T22:24:59.547Z,8.10
2023-02-02T22:27:40.955Z,8.20
2023-02-02T22:30:19.818Z,8.10
2023-02-02T22:32:47.893Z,8.10
2023-02-02T22:35:16.087Z,8.20
2023-02-02T22:37:44.092Z,8.10
2023-02-02T22:40:16.330Z,8.10
2023-02-02T22:42:44.570Z,8.10
2023-02-02T22:45:12.792Z,8.20
2023-02-02T22:47:40.825Z,8.20
2023-02-02T22:50:15.784Z,8.00
2023-02-02T22:52:44.001Z,8.10
2023-02-02T22:55:14.323Z,8.10
2023-02-02T22:57:42.437Z,8.20
2023-02-02T23:00:13.930Z,8.10
2023-02-02T23:02:42.955Z,8.20
2023-02-02T23:05:12.967Z,8.10
2023-02-02T23:07:43.883Z,8.10
2023-02-02T23:10:14.103Z,8.10
2023-02-02T23:12:43.189Z,8.10
2023-02-02T23:15:12.243Z,8.10
2023-02-02T23:17:40.578Z,8.10
2023-02-02T23:20:10.408Z,8.20
2023-02-02T23:22:38.495Z,8.10
2023-02-02T23:25:07.415Z,8.10
2023-02-02T23:27:36.818Z,8.20
2023-02-02T23:30:06.624Z,8.00
2023-02-02T23:32:34.872Z,8.20
2023-02-02T23:35:03.024Z,8.20
2023-02-02T23:37:31.085Z,8.10
2023-02-02T23:39:59.057Z,8.20
2023-02-02T23:42:27.110Z,8.10
2023-02-02T23:44:56.669Z,8.20
2023-02-02T23:47:24.807Z,8.80
2023-02-02T23:49:53.028Z,8.10
2023-02-02T23:54:49.449Z,8.10
2023-02-02T23:57:17.588Z,8.20
2023-02-02T23:59:45.594Z,8.20
